createdAt,value
2019-02-28T00:01:34.805Z,11.45
2019-02-28T00:03:07.274Z,11.68
2019-02-28T00:04:39.621Z,11.57
2019-02-28T00:06:12.671Z,12.60
2019-02-28T00:07:45.032Z,11.95
2019-02-28T00:09:17.255Z,12.15
2019-02-28T00:10:49.420Z,11.90
2019-02-28T00:12:21.716Z,11.73
2019-02-28T00:13:55.817Z,11.33
2019-02-28T00:15:29.628Z,11.57
2019-02-28T00:17:02.247Z,11.30
2019-02-28T00:18:34.481Z,10.50
2019-02-28T00:20:06.932Z,10.40
2019-02-28T00:21:40.633Z,10.88
2019-02-28T00:23:13.318Z,10.23
2019-02-28T00:24:45.635Z,9.88
2019-02-28T00:26:17.794Z,10.40
2019-02-28T00:27:52.679Z,10.13
2019-02-28T00:29:23.922Z,9.60
2019-02-28T00:30:56.200Z,9.95
2019-02-28T00:32:28.453Z,10.45
2019-02-28T00:34:04.518Z,9.80
2019-02-28T00:35:34.736Z,9.65
2019-02-28T00:37:07.012Z,10.08
2019-02-28T00:38:39.284Z,10.03
2019-02-28T00:40:11.638Z,9.30
2019-02-28T00:41:44.733Z,9.15
2019-02-28T00:43:16.997Z,9.95
2019-02-28T00:44:49.231Z,9.90
2019-02-28T00:46:21.481Z,9.40
2019-02-28T00:47:53.751Z,9.33
2019-02-28T00:49:26.000Z,9.60
2019-02-28T00:50:59.175Z,9.50
2019-02-28T00:52:32.082Z,9.70
2019-02-28T00:54:08.548Z,9.35
2019-02-28T00:55:39.935Z,9.60
2019-02-28T00:57:12.203Z,9.08
2019-02-28T00:58:44.514Z,8.88
2019-02-28T01:00:17.182Z,9.65
2019-02-28T01:01:49.417Z,8.45
2019-02-28T01:03:26.415Z,9.20
2019-02-28T01:04:55.667Z,9.55
2019-02-28T01:06:27.921Z,9.68
2019-02-28T01:08:00.091Z,9.40
2019-02-28T01:09:32.337Z,8.65
2019-02-28T01:11:04.602Z,8.85
2019-02-28T01:12:36.904Z,9.28
2019-02-28T01:14:09.169Z,8.70
2019-02-28T01:15:44.910Z,8.55
2019-02-28T01:17:15.600Z,8.60
2019-02-28T01:18:47.852Z,9.08
2019-02-28T01:20:20.143Z,8.48
2019-02-28T01:21:55.363Z,8.93
2019-02-28T01:23:29.352Z,8.53
2019-02-28T01:25:00.744Z,8.55
2019-02-28T01:26:32.974Z,9.20
2019-02-28T01:28:05.279Z,8.85
2019-02-28T01:29:37.513Z,8.50
2019-02-28T01:31:11.553Z,8.38
2019-02-28T01:32:43.972Z,8.53
2019-02-28T01:34:16.362Z,8.08
2019-02-28T01:35:48.534Z,8.50
2019-02-28T01:37:21.080Z,8.95
2019-02-28T01:38:57.451Z,8.20
2019-02-28T01:40:28.263Z,8.15
2019-02-28T01:42:00.455Z,8.13
2019-02-28T01:43:32.711Z,8.10
2019-02-28T01:45:07.084Z,8.58
2019-02-28T01:46:39.873Z,8.23
2019-02-28T01:48:12.098Z,8.35
2019-02-28T01:49:44.365Z,8.00
2019-02-28T01:51:16.678Z,7.58
2019-02-28T01:52:48.930Z,8.20
2019-02-28T01:54:21.219Z,8.30
2019-02-28T01:55:53.364Z,8.15
2019-02-28T01:57:25.595Z,9.35
2019-02-28T01:58:57.877Z,8.10
2019-02-28T02:00:30.183Z,9.05
2019-02-28T02:02:05.743Z,8.63
2019-02-28T02:03:36.457Z,8.65
2019-02-28T02:05:08.747Z,9.03
2019-02-28T02:06:41.030Z,8.48
2019-02-28T02:08:13.307Z,8.80
2019-02-28T02:09:46.295Z,9.15
2019-02-28T02:11:19.438Z,8.63
2019-02-28T02:12:51.736Z,8.98
2019-02-28T02:14:23.852Z,8.73
2019-02-28T02:15:55.964Z,8.68
2019-02-28T02:17:28.178Z,8.70
2019-02-28T02:19:00.461Z,8.93
2019-02-28T02:20:32.823Z,8.90
2019-02-28T02:22:09.208Z,8.80
2019-02-28T02:23:39.264Z,8.78
2019-02-28T02:25:11.647Z,8.88
2019-02-28T02:26:45.217Z,8.48
2019-02-28T02:28:18.013Z,9.03
2019-02-28T02:29:50.144Z,8.75
2019-02-28T02:31:27.597Z,9.00
2019-02-28T02:32:56.599Z,9.25
2019-02-28T02:34:29.645Z,8.98
2019-02-28T02:36:02.102Z,8.90
2019-02-28T02:37:34.383Z,8.48
2019-02-28T02:39:06.969Z,8.55
2019-02-28T02:40:39.225Z,8.83
2019-02-28T02:42:11.699Z,8.50
2019-02-28T02:43:44.001Z,8.05
2019-02-28T02:45:16.372Z,8.00
2019-02-28T02:46:55.479Z,8.38
2019-02-28T02:48:22.809Z,8.00
2019-02-28T02:49:57.456Z,7.60
2019-02-28T02:51:29.311Z,7.78
2019-02-28T02:53:05.405Z,7.40
2019-02-28T02:54:35.699Z,7.90
2019-02-28T02:56:07.988Z,7.67
2019-02-28T02:57:40.246Z,8.08
2019-02-28T02:59:12.579Z,7.35
2019-02-28T03:00:49.621Z,7.35
2019-02-28T03:02:18.954Z,7.47
2019-02-28T03:03:51.141Z,8.15
2019-02-28T03:05:23.389Z,7.55
2019-02-28T03:06:55.691Z,7.60
2019-02-28T03:08:27.935Z,8.03
2019-02-28T03:10:00.416Z,7.12
2019-02-28T03:11:32.676Z,7.72
2019-02-28T03:13:06.259Z,7.47
2019-02-28T03:14:38.917Z,7.80
2019-02-28T03:16:11.145Z,7.78
2019-02-28T03:17:47.219Z,7.35
2019-02-28T03:19:17.763Z,7.33
2019-02-28T03:20:50.043Z,8.20
2019-02-28T03:22:28.257Z,8.45
2019-02-28T03:23:56.283Z,7.60
2019-02-28T03:25:29.087Z,7.50
2019-02-28T03:27:01.470Z,7.75
2019-02-28T03:28:33.800Z,7.53
2019-02-28T03:30:07.569Z,8.00
2019-02-28T03:31:39.898Z,7.80
2019-02-28T03:33:23.863Z,8.10
2019-02-28T03:34:55.549Z,7.50
2019-02-28T03:36:20.686Z,8.10
2019-02-28T03:37:52.984Z,8.33
2019-02-28T03:39:25.813Z,7.55
2019-02-28T03:40:58.056Z,8.00
2019-02-28T03:42:30.362Z,7.50
2019-02-28T03:44:02.610Z,8.90
2019-02-28T03:45:35.409Z,7.70
2019-02-28T03:47:07.700Z,8.10
2019-02-28T03:48:40.025Z,8.23
2019-02-28T03:50:12.292Z,7.90
2019-02-28T03:51:44.733Z,8.38
2019-02-28T03:53:19.900Z,8.23
2019-02-28T03:54:51.274Z,7.33
2019-02-28T03:56:23.616Z,7.78
2019-02-28T03:57:55.892Z,8.03
2019-02-28T03:59:28.141Z,7.95
2019-02-28T04:01:00.367Z,8.50
2019-02-28T04:02:32.773Z,7.80
2019-02-28T04:04:11.009Z,7.78
2019-02-28T04:05:38.974Z,7.35
2019-02-28T04:07:15.702Z,7.42
2019-02-28T04:08:45.455Z,8.13
2019-02-28T04:10:22.090Z,7.83
2019-02-28T04:11:51.978Z,8.13
2019-02-28T04:13:24.140Z,7.97
2019-02-28T04:14:56.302Z,8.20
2019-02-28T04:16:28.528Z,7.60
2019-02-28T04:18:07.051Z,8.08
2019-02-28T04:19:34.811Z,7.92
2019-02-28T04:21:10.144Z,7.28
2019-02-28T04:22:41.442Z,8.28
2019-02-28T04:24:14.121Z,8.45
2019-02-28T04:25:46.466Z,8.05
2019-02-28T04:27:18.602Z,8.18
2019-02-28T04:28:54.650Z,8.50
2019-02-28T04:30:24.990Z,8.05
2019-02-28T04:31:58.143Z,8.60
2019-02-28T04:33:37.393Z,8.45
2019-02-28T04:35:04.930Z,8.80
2019-02-28T04:36:37.252Z,8.35
2019-02-28T04:38:09.435Z,8.15
2019-02-28T04:39:41.698Z,8.88
2019-02-28T04:41:14.024Z,8.03
2019-02-28T04:42:46.306Z,8.60
2019-02-28T04:44:19.028Z,8.90
2019-02-28T04:45:51.334Z,9.23
2019-02-28T04:47:23.462Z,8.78
2019-02-28T04:48:55.684Z,9.25
2019-02-28T04:50:31.317Z,8.93
2019-02-28T04:52:02.112Z,9.50
2019-02-28T04:53:34.276Z,9.45
2019-02-28T04:55:06.409Z,9.53
2019-02-28T04:56:38.546Z,8.85
2019-02-28T04:58:10.884Z,9.13
2019-02-28T04:59:43.098Z,9.10
2019-02-28T05:01:15.390Z,9.60
2019-02-28T05:02:47.648Z,9.70
2019-02-28T05:04:19.939Z,9.88
2019-02-28T05:05:52.014Z,10.13
2019-02-28T05:07:26.350Z,10.30
2019-02-28T05:08:58.281Z,10.05
2019-02-28T05:10:30.544Z,9.50
2019-02-28T05:12:05.238Z,9.00
2019-02-28T05:13:36.943Z,9.48
2019-02-28T05:15:09.375Z,9.65
2019-02-28T05:16:46.925Z,10.40
2019-02-28T05:18:15.848Z,9.65
2019-02-28T05:19:48.164Z,10.28
2019-02-28T05:21:20.503Z,10.28
2019-02-28T05:22:52.616Z,10.15
2019-02-28T05:24:24.887Z,10.48
2019-02-28T05:25:57.056Z,10.15
2019-02-28T05:27:34.821Z,10.45
2019-02-28T05:29:03.507Z,9.40
2019-02-28T05:30:35.825Z,9.78
2019-02-28T05:32:08.047Z,10.70
2019-02-28T05:33:42.083Z,11.40
2019-02-28T05:35:14.319Z,11.10
2019-02-28T05:36:46.506Z,10.18
2019-02-28T05:38:21.123Z,11.20
2019-02-28T05:39:52.627Z,11.53
2019-02-28T05:41:24.934Z,11.22
2019-02-28T05:42:58.421Z,11.55
2019-02-28T05:44:31.365Z,11.00
2019-02-28T05:46:03.616Z,11.25
2019-02-28T05:47:45.745Z,11.30
2019-02-28T05:49:10.025Z,11.97
2019-02-28T05:50:42.373Z,11.65
2019-02-28T05:52:14.755Z,11.53
2019-02-28T05:53:47.083Z,12.25
2019-02-28T05:55:24.429Z,22.00
2019-02-28T05:56:53.385Z,12.78
2019-02-28T05:58:25.515Z,13.08
2019-02-28T06:00:01.441Z,12.15
2019-02-28T06:01:31.924Z,11.90
2019-02-28T06:03:04.284Z,12.78
2019-02-28T06:04:37.124Z,12.75
2019-02-28T06:06:10.213Z,12.28
2019-02-28T06:07:42.390Z,12.58
2019-02-28T06:09:14.849Z,12.20
2019-02-28T06:10:47.225Z,12.65
2019-02-28T06:12:19.342Z,13.18
2019-02-28T06:13:52.835Z,12.55
2019-02-28T06:15:25.721Z,12.93
2019-02-28T06:16:57.848Z,12.25
2019-02-28T06:18:32.523Z,12.63
2019-02-28T06:20:05.198Z,12.88
2019-02-28T06:21:37.435Z,13.43
2019-02-28T06:23:10.148Z,14.07
2019-02-28T06:24:44.868Z,13.93
2019-02-28T06:26:16.714Z,13.43
2019-02-28T06:27:50.673Z,13.35
2019-02-28T06:29:23.142Z,13.75
2019-02-28T06:30:55.433Z,12.88
2019-02-28T06:32:27.748Z,13.08
2019-02-28T06:33:59.912Z,12.75
2019-02-28T06:35:32.029Z,13.62
2019-02-28T06:37:04.533Z,13.30
2019-02-28T06:38:36.893Z,13.10
2019-02-28T06:40:11.066Z,12.85
2019-02-28T06:41:43.176Z,13.45
2019-02-28T06:43:18.715Z,13.05
2019-02-28T06:44:49.593Z,13.05
2019-02-28T06:46:21.683Z,13.75
2019-02-28T06:47:53.942Z,13.25
2019-02-28T06:49:26.084Z,13.45
2019-02-28T06:50:58.158Z,13.18
2019-02-28T06:52:30.447Z,13.43
2019-02-28T06:54:04.456Z,13.50
2019-02-28T06:55:47.114Z,13.18
2019-02-28T06:57:19.427Z,13.15
2019-02-28T06:58:51.773Z,13.70
2019-02-28T07:00:23.963Z,12.68
2019-02-28T07:01:57.558Z,13.60
2019-02-28T07:03:29.909Z,13.95
2019-02-28T07:05:02.248Z,13.83
2019-02-28T07:06:35.970Z,13.62
2019-02-28T07:08:08.621Z,14.03
2019-02-28T07:09:40.864Z,14.30
2019-02-28T07:11:12.995Z,13.93
2019-02-28T07:12:45.118Z,14.35
2019-02-28T07:14:19.516Z,14.35
2019-02-28T07:15:55.455Z,13.83
2019-02-28T07:17:26.569Z,15.15
2019-02-28T07:19:00.271Z,15.15
2019-02-28T07:20:35.095Z,14.70
2019-02-28T07:22:07.245Z,14.80
2019-02-28T07:23:39.474Z,14.65
2019-02-28T07:25:12.758Z,14.83
2019-02-28T07:26:45.860Z,14.65
2019-02-28T07:28:18.489Z,14.70
2019-02-28T07:29:50.708Z,15.55
2019-02-28T07:31:24.763Z,14.50
2019-02-28T07:32:57.502Z,15.28
2019-02-28T07:34:30.901Z,15.83
2019-02-28T07:36:05.668Z,16.17
2019-02-28T07:37:37.670Z,14.95
2019-02-28T07:39:10.040Z,14.80
2019-02-28T07:40:45.659Z,15.30
2019-02-28T07:42:19.000Z,16.23
2019-02-28T07:43:52.329Z,16.55
2019-02-28T07:45:24.686Z,15.95
2019-02-28T07:46:56.864Z,16.45
2019-02-28T07:48:30.667Z,16.07
2019-02-28T07:50:03.281Z,17.37
2019-02-28T07:51:35.809Z,16.52
2019-02-28T07:53:08.855Z,16.52
2019-02-28T07:54:42.079Z,16.40
2019-02-28T07:56:14.635Z,17.05
2019-02-28T07:57:51.300Z,16.93
2019-02-28T07:59:20.859Z,17.20
2019-02-28T08:00:53.731Z,16.20
2019-02-28T08:02:26.267Z,17.10
2019-02-28T08:03:58.504Z,17.27
2019-02-28T08:05:31.182Z,16.62
2019-02-28T08:07:03.549Z,16.67
2019-02-28T08:08:35.774Z,16.95
2019-02-28T08:10:12.739Z,17.17
2019-02-28T08:11:43.796Z,17.62
2019-02-28T08:13:16.130Z,17.77
2019-02-28T08:14:48.361Z,17.40
2019-02-28T08:16:20.620Z,18.10
2019-02-28T08:17:52.960Z,18.23
2019-02-28T08:19:27.239Z,18.70
2019-02-28T08:20:59.495Z,17.90
2019-02-28T08:22:31.619Z,18.23
2019-02-28T08:24:05.382Z,19.10
2019-02-28T08:25:39.678Z,21.00
2019-02-28T08:27:12.473Z,21.25
2019-02-28T08:28:44.902Z,24.50
2019-02-28T08:30:19.532Z,25.25
2019-02-28T08:31:52.666Z,24.20
2019-02-28T08:33:24.978Z,22.60
2019-02-28T08:34:59.425Z,22.48
2019-02-28T08:36:31.317Z,22.10
2019-02-28T08:38:03.665Z,20.37
2019-02-28T08:39:35.770Z,20.45
2019-02-28T08:41:08.001Z,21.27
2019-02-28T08:42:40.310Z,19.98
2019-02-28T08:44:12.537Z,20.25
2019-02-28T08:45:44.808Z,20.35
2019-02-28T08:47:17.855Z,21.33
2019-02-28T08:48:51.086Z,21.05
2019-02-28T08:50:23.778Z,20.17
2019-02-28T08:51:56.302Z,21.00
2019-02-28T08:53:31.383Z,20.50
2019-02-28T08:55:07.090Z,22.27
2019-02-28T08:56:38.824Z,21.77
2019-02-28T08:58:11.142Z,21.93
2019-02-28T08:59:43.401Z,22.93
2019-02-28T09:01:15.700Z,21.60
2019-02-28T09:02:52.436Z,23.32
2019-02-28T09:04:22.123Z,23.22
2019-02-28T09:05:54.391Z,22.02
2019-02-28T09:07:26.651Z,22.65
2019-02-28T09:08:59.871Z,23.50
2019-02-28T09:10:33.048Z,22.95
2019-02-28T09:12:05.289Z,23.92
2019-02-28T09:13:39.965Z,23.40
2019-02-28T09:15:12.888Z,24.32
2019-02-28T09:16:45.158Z,24.02
2019-02-28T09:18:17.548Z,23.35
2019-02-28T09:19:49.692Z,23.12
2019-02-28T09:21:21.988Z,25.08
2019-02-28T09:22:54.251Z,23.83
2019-02-28T09:24:26.515Z,24.10
2019-02-28T09:25:58.671Z,24.65
2019-02-28T09:27:30.977Z,23.98
2019-02-28T09:29:03.291Z,24.65
2019-02-28T09:30:37.137Z,23.73
2019-02-28T09:32:10.185Z,23.77
2019-02-28T09:33:43.586Z,24.95
2019-02-28T09:35:15.869Z,24.63
2019-02-28T09:36:48.121Z,24.55
2019-02-28T09:38:20.471Z,25.05
2019-02-28T09:39:54.292Z,24.72
2019-02-28T09:41:26.888Z,25.08
2019-02-28T09:42:59.132Z,25.43
2019-02-28T09:44:31.729Z,24.52
2019-02-28T09:46:04.851Z,25.15
2019-02-28T09:47:37.189Z,25.25
2019-02-28T09:49:12.992Z,24.80
2019-02-28T09:50:43.660Z,25.20
2019-02-28T09:52:16.006Z,25.57
2019-02-28T09:53:50.322Z,26.15
2019-02-28T09:55:22.222Z,25.27
2019-02-28T09:56:54.509Z,26.17
2019-02-28T09:58:29.256Z,25.68
2019-02-28T10:00:00.943Z,25.02
2019-02-28T10:01:33.243Z,25.52
2019-02-28T10:03:06.842Z,26.27
2019-02-28T10:04:42.336Z,26.33
2019-02-28T10:06:16.461Z,26.00
2019-02-28T10:07:48.734Z,25.25
2019-02-28T10:09:21.106Z,26.30
2019-02-28T10:10:55.815Z,25.30
2019-02-28T10:12:28.080Z,26.15
2019-02-28T10:14:00.365Z,25.40
2019-02-28T10:15:33.089Z,26.40
2019-02-28T10:17:05.565Z,25.57
2019-02-28T10:18:38.995Z,25.95
2019-02-28T10:20:27.105Z,25.87
2019-02-28T10:21:59.364Z,25.47
2019-02-28T10:23:31.707Z,25.00
2019-02-28T10:25:06.484Z,24.50
2019-02-28T10:26:38.952Z,25.50
2019-02-28T10:28:11.263Z,26.00
2019-02-28T10:29:43.489Z,25.50
2019-02-28T10:31:15.802Z,25.00
2019-02-28T10:32:48.087Z,26.03
2019-02-28T10:34:20.243Z,24.17
2019-02-28T10:35:52.480Z,24.23
2019-02-28T10:37:24.740Z,25.23
2019-02-28T10:38:56.926Z,26.00
2019-02-28T10:40:29.230Z,24.40
2019-02-28T10:42:04.768Z,24.17
2019-02-28T10:43:35.685Z,25.37
2019-02-28T10:45:09.051Z,24.33
2019-02-28T10:46:41.333Z,25.17
2019-02-28T10:48:13.535Z,24.23
2019-02-28T10:49:45.806Z,24.17
2019-02-28T10:51:18.139Z,24.93
2019-02-28T10:52:50.439Z,23.67
2019-02-28T10:54:22.715Z,24.43
2019-02-28T10:55:58.045Z,24.47
2019-02-28T10:57:29.167Z,24.73
2019-02-28T10:59:01.329Z,24.07
2019-02-28T11:00:33.981Z,24.70
2019-02-28T11:02:06.393Z,24.40
2019-02-28T11:03:38.648Z,24.53
2019-02-28T11:05:15.342Z,24.47
2019-02-28T11:06:49.273Z,24.50
2019-02-28T11:08:21.392Z,24.47
2019-02-28T11:09:55.548Z,24.83
2019-02-28T11:11:27.962Z,24.40
2019-02-28T11:13:00.138Z,25.63
2019-02-28T11:14:32.449Z,25.00
2019-02-28T11:16:06.673Z,24.30
2019-02-28T11:17:38.981Z,23.95
2019-02-28T11:19:13.825Z,25.37
2019-02-28T11:20:45.559Z,25.17
2019-02-28T11:22:18.062Z,25.77
2019-02-28T11:23:50.497Z,24.80
2019-02-28T11:25:24.577Z,24.33
2019-02-28T11:26:56.895Z,24.45
2019-02-28T11:28:29.325Z,23.95
2019-02-28T11:30:01.717Z,23.87
2019-02-28T11:31:34.081Z,24.43
2019-02-28T11:33:06.595Z,24.45
2019-02-28T11:34:38.842Z,24.80
2019-02-28T11:36:11.040Z,24.40
2019-02-28T11:37:46.055Z,24.13
2019-02-28T11:39:20.818Z,24.02
2019-02-28T11:40:57.228Z,24.07
2019-02-28T11:42:28.983Z,24.05
2019-02-28T11:44:02.236Z,23.83
2019-02-28T11:45:34.967Z,24.20
2019-02-28T11:47:08.439Z,23.07
2019-02-28T11:48:41.428Z,23.60
2019-02-28T11:50:13.956Z,22.67
2019-02-28T11:51:46.099Z,24.33
2019-02-28T11:53:19.134Z,22.93
2019-02-28T11:54:51.717Z,22.67
2019-02-28T11:56:25.578Z,22.90
2019-02-28T11:57:58.675Z,23.73
2019-02-28T11:59:31.044Z,22.13
2019-02-28T12:01:03.811Z,23.47
2019-02-28T12:02:36.097Z,23.30
2019-02-28T12:04:08.349Z,23.00
2019-02-28T12:05:40.499Z,23.37
2019-02-28T12:07:12.705Z,22.37
2019-02-28T12:08:45.775Z,21.80
2019-02-28T12:10:18.578Z,22.43
2019-02-28T12:11:50.858Z,21.57
2019-02-28T12:13:23.104Z,21.60
2019-02-28T12:14:55.379Z,22.07
2019-02-28T12:16:27.690Z,21.63
2019-02-28T12:18:03.366Z,21.17
2019-02-28T12:19:34.047Z,20.97
2019-02-28T12:21:06.351Z,21.90
2019-02-28T12:22:38.703Z,20.63
2019-02-28T12:24:10.973Z,20.90
2019-02-28T12:25:43.645Z,22.50
2019-02-28T12:27:16.020Z,22.03
2019-02-28T12:28:48.224Z,21.73
2019-02-28T12:30:25.112Z,20.67
2019-02-28T12:31:56.352Z,21.47
2019-02-28T12:33:28.626Z,21.17
2019-02-28T12:35:02.410Z,20.50
2019-02-28T12:36:34.660Z,19.90
2019-02-28T12:38:06.964Z,20.70
2019-02-28T12:39:39.261Z,20.73
2019-02-28T12:41:11.613Z,21.37
2019-02-28T12:42:43.928Z,20.90
2019-02-28T12:44:16.197Z,22.00
2019-02-28T12:45:48.629Z,21.10
2019-02-28T12:47:21.925Z,21.23
2019-02-28T12:48:54.195Z,21.07
2019-02-28T12:50:29.406Z,22.10
2019-02-28T12:52:00.776Z,21.43
2019-02-28T12:53:33.051Z,21.10
2019-02-28T12:55:06.685Z,20.50
2019-02-28T12:56:38.967Z,21.73
2019-02-28T12:58:11.276Z,21.63
2019-02-28T12:59:46.108Z,22.53
2019-02-28T13:01:17.694Z,20.77
2019-02-28T13:02:49.987Z,20.87
2019-02-28T13:04:22.229Z,21.77
2019-02-28T13:05:54.507Z,22.33
2019-02-28T13:07:26.845Z,21.00
2019-02-28T13:08:59.079Z,21.20
2019-02-28T13:10:31.361Z,21.57
2019-02-28T13:12:03.782Z,20.67
2019-02-28T13:13:36.054Z,20.93
2019-02-28T13:15:09.398Z,21.20
2019-02-28T13:16:41.695Z,21.60
2019-02-28T13:18:14.005Z,21.63
2019-02-28T13:19:46.387Z,21.07
2019-02-28T13:21:18.733Z,21.10
2019-02-28T13:22:51.063Z,21.43
2019-02-28T13:24:23.414Z,21.67
2019-02-28T13:25:59.398Z,21.27
2019-02-28T13:27:32.039Z,20.77
2019-02-28T13:29:04.129Z,22.23
2019-02-28T13:30:39.843Z,22.07
2019-02-28T13:32:10.578Z,20.43
2019-02-28T13:33:43.075Z,21.40
2019-02-28T13:35:23.514Z,20.87
2019-02-28T13:37:02.039Z,20.10
2019-02-28T13:38:30.033Z,20.93
2019-02-28T13:40:04.328Z,20.67
2019-02-28T13:41:36.780Z,20.00
2019-02-28T13:43:10.192Z,20.50
2019-02-28T13:44:42.454Z,20.20
2019-02-28T13:46:14.865Z,20.80
2019-02-28T13:47:47.890Z,20.70
2019-02-28T13:49:20.549Z,20.30
2019-02-28T13:50:52.954Z,19.17
2019-02-28T13:52:25.141Z,19.20
2019-02-28T13:53:57.407Z,20.00
2019-02-28T13:55:29.539Z,20.00
2019-02-28T13:57:08.205Z,19.90
2019-02-28T13:58:35.970Z,20.83
2019-02-28T14:00:44.009Z,19.57
2019-02-28T14:02:13.726Z,18.77
2019-02-28T14:03:46.927Z,19.33
2019-02-28T14:05:19.336Z,18.83
2019-02-28T14:06:52.355Z,17.97
2019-02-28T14:08:25.852Z,17.50
2019-02-28T14:09:58.372Z,18.37
2019-02-28T14:11:30.824Z,17.93
2019-02-28T14:13:03.730Z,17.83
2019-02-28T14:14:38.971Z,18.17
2019-02-28T14:16:10.177Z,17.90
2019-02-28T14:17:42.455Z,16.87
2019-02-28T14:19:16.833Z,16.97
2019-02-28T14:20:49.743Z,17.60
2019-02-28T14:22:25.327Z,16.93
2019-02-28T14:23:59.072Z,16.93
2019-02-28T14:25:31.501Z,17.00
2019-02-28T14:27:03.810Z,18.10
2019-02-28T14:28:36.380Z,17.90
2019-02-28T14:30:10.598Z,18.03
2019-02-28T14:31:42.864Z,18.37
2019-02-28T14:33:16.209Z,20.73
2019-02-28T14:34:49.504Z,19.60
2019-02-28T14:36:21.908Z,19.13
2019-02-28T14:37:55.566Z,19.33
2019-02-28T14:39:28.351Z,18.37
2019-02-28T14:41:00.634Z,21.00
2019-02-28T14:42:32.880Z,20.50
2019-02-28T14:44:05.082Z,20.17
2019-02-28T14:45:39.165Z,20.30
2019-02-28T14:47:12.232Z,18.80
2019-02-28T14:48:44.547Z,19.57
2019-02-28T14:50:18.943Z,19.73
2019-02-28T14:51:51.130Z,19.87
2019-02-28T14:53:23.424Z,19.77
2019-02-28T14:54:57.143Z,21.23
2019-02-28T14:56:30.003Z,20.07
2019-02-28T14:58:02.211Z,19.23
2019-02-28T14:59:34.495Z,19.23
2019-02-28T15:01:06.914Z,19.93
2019-02-28T15:02:39.157Z,18.87
2019-02-28T15:04:11.340Z,18.47
2019-02-28T15:05:43.612Z,18.30
2019-02-28T15:07:15.860Z,17.93
2019-02-28T15:08:51.008Z,17.83
2019-02-28T15:10:22.289Z,17.57
2019-02-28T15:11:54.587Z,16.97
2019-02-28T15:13:26.739Z,17.70
2019-02-28T15:14:58.955Z,17.50
2019-02-28T15:16:31.273Z,18.57
2019-02-28T15:18:03.866Z,17.07
2019-02-28T15:19:36.175Z,17.27
2019-02-28T15:21:08.429Z,16.47
2019-02-28T15:22:40.571Z,15.17
2019-02-28T15:24:12.815Z,15.30
2019-02-28T15:25:45.088Z,16.43
2019-02-28T15:27:17.328Z,15.03
2019-02-28T15:28:49.593Z,13.37
2019-02-28T15:30:24.425Z,14.30
2019-02-28T15:31:56.810Z,14.40
2019-02-28T15:33:30.488Z,15.20
2019-02-28T15:35:04.714Z,14.53
2019-02-28T15:36:36.998Z,13.67
2019-02-28T15:38:10.394Z,14.80
2019-02-28T15:39:42.886Z,13.90
2019-02-28T15:41:15.048Z,15.10
2019-02-28T15:42:47.311Z,14.63
2019-02-28T15:44:19.771Z,15.17
2019-02-28T15:45:52.093Z,15.43
2019-02-28T15:47:24.413Z,14.63
2019-02-28T15:48:56.659Z,14.30
2019-02-28T15:50:28.945Z,15.05
2019-02-28T15:52:01.905Z,15.37
2019-02-28T15:53:35.352Z,14.53
2019-02-28T15:55:07.633Z,14.93
2019-02-28T15:56:39.927Z,15.63
2019-02-28T15:58:12.176Z,15.45
2019-02-28T15:59:46.701Z,17.00
2019-02-28T16:01:18.642Z,20.08
2019-02-28T16:02:51.014Z,21.13
2019-02-28T16:04:23.529Z,20.92
2019-02-28T16:05:57.526Z,21.20
2019-02-28T16:07:33.343Z,21.17
2019-02-28T16:09:06.895Z,20.43
2019-02-28T16:10:39.192Z,21.55
2019-02-28T16:12:12.488Z,24.52
2019-02-28T16:13:45.694Z,26.12
2019-02-28T16:15:17.932Z,25.82
2019-02-28T16:16:50.244Z,26.20
2019-02-28T16:18:22.497Z,26.68
2019-02-28T16:19:56.211Z,27.37
2019-02-28T16:21:28.979Z,26.17
2019-02-28T16:23:01.189Z,27.80
2019-02-28T16:24:33.535Z,26.42
2019-02-28T16:26:05.902Z,26.42
2019-02-28T16:27:38.283Z,26.33
2019-02-28T16:29:10.546Z,25.72
2019-02-28T16:30:42.810Z,25.90
2019-02-28T16:32:15.452Z,25.15
2019-02-28T16:33:48.067Z,22.95
2019-02-28T16:35:20.321Z,21.85
2019-02-28T16:36:52.817Z,21.07
2019-02-28T16:38:25.087Z,21.27
2019-02-28T16:39:57.438Z,19.25
2019-02-28T16:41:29.550Z,19.07
2019-02-28T16:43:01.801Z,18.50
2019-02-28T16:44:34.055Z,17.52
2019-02-28T16:46:06.264Z,16.97
2019-02-28T16:47:38.526Z,16.95
2019-02-28T16:49:11.293Z,15.90
2019-02-28T16:50:43.708Z,15.45
2019-02-28T16:52:16.090Z,15.18
2019-02-28T16:53:48.878Z,14.35
2019-02-28T16:55:21.411Z,15.10
2019-02-28T16:56:53.675Z,15.68
2019-02-28T16:58:25.872Z,14.28
2019-02-28T16:59:58.093Z,12.30
2019-02-28T17:01:30.472Z,10.13
2019-02-28T17:03:03.945Z,10.30
2019-02-28T17:04:37.652Z,9.78
2019-02-28T17:06:09.918Z,9.38
2019-02-28T17:07:43.678Z,8.63
2019-02-28T17:09:22.808Z,7.65
2019-02-28T17:10:55.074Z,6.92
2019-02-28T17:12:46.873Z,7.12
2019-02-28T17:14:19.244Z,7.17
2019-02-28T17:16:10.030Z,7.10
2019-02-28T17:17:47.925Z,7.55
2019-02-28T17:19:20.292Z,7.80
2019-02-28T17:20:52.533Z,7.55
2019-02-28T17:22:27.018Z,7.42
2019-02-28T17:23:59.002Z,7.65
2019-02-28T17:25:31.300Z,8.08
2019-02-28T17:27:20.250Z,8.03
2019-02-28T17:29:06.512Z,7.78
2019-02-28T17:30:47.359Z,8.03
2019-02-28T17:32:20.007Z,7.70
2019-02-28T17:33:52.274Z,8.23
2019-02-28T17:35:24.511Z,8.03
2019-02-28T17:36:56.816Z,7.87
2019-02-28T17:38:32.307Z,8.15
2019-02-28T17:40:04.439Z,7.90
2019-02-28T17:41:37.332Z,8.00
2019-02-28T17:43:10.275Z,8.30
2019-02-28T17:45:10.105Z,8.08
2019-02-28T17:46:43.509Z,8.00
2019-02-28T17:48:45.350Z,8.45
2019-02-28T17:50:35.135Z,8.53
2019-02-28T17:52:14.406Z,9.53
2019-02-28T17:54:30.206Z,9.13
2019-02-28T17:56:47.226Z,9.65
2019-02-28T17:58:49.636Z,9.53
2019-02-28T18:01:15.765Z,9.18
2019-02-28T18:03:44.966Z,9.80
2019-02-28T18:05:39.004Z,10.20
2019-02-28T18:07:39.129Z,9.80
2019-02-28T18:09:36.410Z,10.18
2019-02-28T18:11:34.149Z,10.35
2019-02-28T18:13:40.421Z,9.65
2019-02-28T18:15:29.062Z,10.72
2019-02-28T18:17:35.197Z,10.48
2019-02-28T18:19:41.786Z,10.20
2019-02-28T18:21:48.902Z,11.30
2019-02-28T18:24:18.307Z,10.85
2019-02-28T18:26:18.213Z,11.40
2019-02-28T18:28:27.863Z,10.80
2019-02-28T18:30:22.760Z,11.00
2019-02-28T18:31:57.049Z,11.93
2019-02-28T18:33:29.163Z,12.20
2019-02-28T18:35:01.452Z,12.00
2019-02-28T18:36:33.755Z,11.93
2019-02-28T18:38:06.067Z,11.90
2019-02-28T18:39:38.377Z,12.18
2019-02-28T18:41:10.720Z,12.35
2019-02-28T18:42:42.993Z,12.43
2019-02-28T18:44:15.268Z,12.23
2019-02-28T18:45:47.513Z,12.47
2019-02-28T18:47:19.684Z,12.40
2019-02-28T18:48:54.382Z,12.35
2019-02-28T18:50:26.263Z,12.75
2019-02-28T18:51:59.665Z,11.93
2019-02-28T18:53:32.123Z,12.15
2019-02-28T18:55:06.437Z,12.53
2019-02-28T18:56:38.653Z,12.05
2019-02-28T18:58:10.926Z,11.85
2019-02-28T18:59:43.216Z,12.05
2019-02-28T19:01:15.535Z,11.93
2019-02-28T19:02:47.829Z,12.10
2019-02-28T19:04:20.081Z,12.23
2019-02-28T19:05:52.390Z,11.73
2019-02-28T19:07:24.720Z,12.10
2019-02-28T19:08:57.014Z,11.65
2019-02-28T19:10:29.317Z,11.85
2019-02-28T19:12:01.665Z,11.38
2019-02-28T19:13:33.822Z,11.63
2019-02-28T19:15:06.406Z,11.88
2019-02-28T19:16:38.699Z,11.83
2019-02-28T19:18:10.975Z,11.57
2019-02-28T19:19:43.265Z,11.43
2019-02-28T19:21:15.544Z,11.70
2019-02-28T19:22:47.854Z,10.23
2019-02-28T19:24:20.241Z,10.35
2019-02-28T19:25:52.568Z,10.28
2019-02-28T19:27:24.847Z,11.10
2019-02-28T19:28:57.208Z,10.70
2019-02-28T19:30:29.561Z,11.22
2019-02-28T19:32:01.937Z,11.35
2019-02-28T19:33:34.226Z,11.08
2019-02-28T19:35:06.554Z,11.65
2019-02-28T19:36:38.889Z,11.93
2019-02-28T19:38:11.168Z,12.60
2019-02-28T19:39:43.489Z,12.82
2019-02-28T19:41:15.704Z,13.15
2019-02-28T19:42:48.063Z,14.50
2019-02-28T19:44:20.340Z,13.70
2019-02-28T19:45:53.370Z,14.38
2019-02-28T19:47:25.737Z,13.00
2019-02-28T19:48:58.103Z,13.90
2019-02-28T19:50:30.441Z,13.98
2019-02-28T19:52:02.719Z,14.13
2019-02-28T19:53:34.914Z,14.35
2019-02-28T19:55:09.059Z,14.35
2019-02-28T19:56:41.314Z,14.55
2019-02-28T19:58:13.600Z,14.63
2019-02-28T19:59:45.842Z,14.60
2019-02-28T20:01:19.314Z,14.90
2019-02-28T20:02:51.642Z,14.47
2019-02-28T20:04:23.954Z,14.98
2019-02-28T20:05:56.224Z,14.35
2019-02-28T20:07:28.487Z,14.90
2019-02-28T20:09:00.792Z,14.47
2019-02-28T20:10:33.078Z,15.30
2019-02-28T20:12:05.430Z,15.32
2019-02-28T20:13:37.760Z,15.28
2019-02-28T20:15:11.238Z,15.58
2019-02-28T20:16:43.485Z,15.28
2019-02-28T20:18:15.736Z,14.87
2019-02-28T20:19:47.868Z,14.85